createdAt,value
2023-05-03T00:41:50.363Z,99146.00
2023-05-03T00:44:52.817Z,99147.47
2023-05-03T00:47:55.584Z,99144.69
2023-05-03T00:50:57.658Z,99144.09
2023-05-03T00:53:59.221Z,99134.56
2023-05-03T00:57:01.797Z,99140.53
2023-05-03T01:00:04.238Z,99143.16
2023-05-03T01:03:06.226Z,99137.84
2023-05-03T01:06:20.671Z,99141.34
2023-05-03T01:09:23.426Z,99136.06
2023-05-03T01:12:40.872Z,99138.72
2023-05-03T01:15:53.692Z,99117.16
2023-05-03T01:18:55.414Z,99123.09
2023-05-03T01:22:16.256Z,99114.38
2023-05-03T01:25:18.119Z,99115.84
2023-05-03T01:28:19.725Z,99115.88
2023-05-03T01:31:35.435Z,99105.38
2023-05-03T01:34:42.612Z,99113.25
2023-05-03T01:37:44.210Z,99101.22
2023-05-03T01:40:48.491Z,99098.22
2023-05-03T01:43:50.548Z,99094.91
2023-05-03T01:46:52.110Z,99092.34
2023-05-03T01:49:53.666Z,99100.88
2023-05-03T01:52:55.272Z,99088.69
2023-05-03T01:55:56.884Z,99095.44
2023-05-03T01:58:58.513Z,99102.38
2023-05-03T02:02:00.070Z,99095.72
2023-05-03T02:05:01.713Z,99084.81
2023-05-03T02:08:03.621Z,99086.00
2023-05-03T02:11:05.258Z,99084.75
2023-05-03T02:14:08.007Z,99090.06
2023-05-03T02:17:10.536Z,99088.28
2023-05-03T02:20:12.652Z,99083.22
2023-05-03T02:23:14.333Z,99086.69
2023-05-03T02:26:15.939Z,99090.09
2023-05-03T02:29:17.487Z,99087.28
2023-05-03T02:32:19.193Z,99089.19
2023-05-03T02:35:23.415Z,99079.69
2023-05-03T02:38:25.038Z,99083.81
2023-05-03T02:41:27.117Z,99079.44
2023-05-03T02:44:28.875Z,99075.22
2023-05-03T02:47:30.833Z,99082.13
2023-05-03T02:50:32.452Z,99082.84
2023-05-03T02:53:34.067Z,99076.53
2023-05-03T02:56:35.702Z,99072.38
2023-05-03T02:59:37.297Z,99076.53
2023-05-03T03:02:38.961Z,99072.56
2023-05-03T03:05:40.655Z,99071.47
2023-05-03T03:08:42.212Z,99082.63
2023-05-03T03:11:43.753Z,99074.84
2023-05-03T03:14:45.836Z,99073.28
2023-05-03T03:17:47.556Z,99076.47
2023-05-03T03:20:49.311Z,99078.88
2023-05-03T03:23:51.011Z,99083.19
2023-05-03T03:26:52.582Z,99082.31
2023-05-03T03:29:54.226Z,99080.50
2023-05-03T03:32:55.913Z,99083.19
2023-05-03T03:35:57.563Z,99083.97
2023-05-03T03:38:59.194Z,99086.50
2023-05-03T03:42:01.086Z,99078.78
2023-05-03T03:45:02.713Z,99083.75
2023-05-03T03:48:04.471Z,99081.25
2023-05-03T03:51:06.141Z,99087.22
2023-05-03T03:54:07.789Z,99080.22
2023-05-03T03:57:09.389Z,99080.41
2023-05-03T04:00:11.835Z,99079.56
2023-05-03T04:03:13.439Z,99077.72
2023-05-03T04:06:15.195Z,99083.94
2023-05-03T04:09:17.671Z,99081.13
2023-05-03T04:12:19.370Z,99086.31
2023-05-03T04:15:21.007Z,99077.59
2023-05-03T04:18:23.062Z,99070.59
2023-05-03T04:21:24.676Z,99073.38
2023-05-03T04:24:30.543Z,99070.75
2023-05-03T04:27:33.532Z,99076.63
2023-05-03T04:30:35.861Z,99075.13
2023-05-03T04:33:37.555Z,99072.63
2023-05-03T04:36:40.054Z,99072.44
2023-05-03T04:39:41.612Z,99073.28
2023-05-03T04:42:43.784Z,99073.28
2023-05-03T04:45:45.449Z,99076.09
2023-05-03T04:48:47.028Z,99074.31
2023-05-03T04:51:48.672Z,99080.56
2023-05-03T04:54:50.278Z,99071.88
2023-05-03T04:57:51.857Z,99074.72
2023-05-03T05:00:54.199Z,99085.19
2023-05-03T05:03:55.978Z,99081.94
2023-05-03T05:06:57.636Z,99081.94
2023-05-03T05:09:59.380Z,99081.41
2023-05-03T05:13:01.558Z,99084.09
2023-05-03T05:16:03.828Z,99084.19
2023-05-03T05:19:05.409Z,99087.84
2023-05-03T05:22:06.961Z,99088.00
2023-05-03T05:25:08.606Z,99095.78
2023-05-03T05:28:11.223Z,99093.44
2023-05-03T05:31:13.543Z,99092.09
2023-05-03T05:34:15.692Z,99092.28
2023-05-03T05:37:17.367Z,99089.91
2023-05-03T05:40:19.263Z,99093.63
2023-05-03T05:43:20.917Z,99100.66
2023-05-03T05:46:22.598Z,99100.88
2023-05-03T05:49:24.204Z,99096.66
2023-05-03T05:52:25.768Z,99092.63
2023-05-03T05:55:27.496Z,99098.84
2023-05-03T05:58:29.074Z,99106.06
2023-05-03T06:01:32.137Z,99106.28
2023-05-03T06:04:33.723Z,99100.41
2023-05-03T06:07:35.517Z,99107.47
2023-05-03T06:10:37.115Z,99100.72
2023-05-03T06:13:40.733Z,99103.53
2023-05-03T06:16:42.649Z,99111.53
2023-05-03T06:19:45.204Z,99119.50
2023-05-03T06:22:46.925Z,99128.22
2023-05-03T06:25:48.853Z,99131.00
2023-05-03T06:28:52.119Z,99134.69
2023-05-03T06:31:53.643Z,99151.41
2023-05-03T06:34:55.341Z,99156.84
2023-05-03T06:37:56.938Z,99157.91
2023-05-03T06:40:58.551Z,99169.38
2023-05-03T06:44:00.178Z,99179.91
2023-05-03T06:47:02.334Z,99187.91
2023-05-03T06:50:04.628Z,99201.03
2023-05-03T06:53:06.609Z,99207.25
2023-05-03T06:56:08.204Z,99211.72
2023-05-03T06:59:09.766Z,99212.63
2023-05-03T07:02:11.759Z,99224.88
2023-05-03T07:05:13.453Z,99221.38
2023-05-03T07:08:15.107Z,99225.78
2023-05-03T07:11:16.669Z,99226.66
2023-05-03T07:14:18.242Z,99226.69
2023-05-03T07:17:19.803Z,99239.75
2023-05-03T07:20:21.546Z,99231.88
2023-05-03T07:23:23.149Z,99228.38
2023-05-03T07:26:26.582Z,99237.97
2023-05-03T07:29:28.170Z,99237.97
2023-05-03T07:32:30.105Z,99239.72
2023-05-03T07:35:33.071Z,99243.16
2023-05-03T07:38:34.582Z,99250.03
2023-05-03T07:41:37.074Z,99244.81
2023-05-03T07:44:38.736Z,99243.94
2023-05-03T07:47:40.502Z,99242.00
2023-05-03T07:50:43.844Z,99236.75
2023-05-03T07:53:45.439Z,99230.66
2023-05-03T07:56:47.026Z,99234.88
2023-05-03T07:59:48.572Z,99230.38
2023-05-03T08:02:50.223Z,99237.31
2023-05-03T08:05:51.875Z,99234.75
2023-05-03T08:08:53.479Z,99238.03
2023-05-03T08:11:56.346Z,99243.81
2023-05-03T08:14:58.130Z,99243.09
2023-05-03T08:17:59.933Z,99243.28
2023-05-03T08:21:01.528Z,99251.47
2023-05-03T08:24:06.010Z,99254.00
2023-05-03T08:27:08.336Z,99259.81
2023-05-03T08:30:10.736Z,99255.78
2023-05-03T08:33:12.371Z,99258.06
2023-05-03T08:36:13.995Z,99255.78
2023-05-03T08:39:15.795Z,99256.25
2023-05-03T08:42:17.252Z,99262.72
2023-05-03T08:45:18.869Z,99263.59
2023-05-03T08:48:23.589Z,99261.31
2023-05-03T08:51:25.446Z,99254.38
2023-05-03T08:54:27.339Z,99260.28
2023-05-03T08:57:28.937Z,99253.59
2023-05-03T09:00:30.708Z,99254.31
2023-05-03T09:03:33.052Z,99258.19
2023-05-03T09:06:34.786Z,99261.16
2023-05-03T09:09:36.782Z,99259.94
2023-05-03T09:12:41.075Z,99253.34
2023-05-03T09:15:45.281Z,99265.38
2023-05-03T09:18:56.866Z,99257.50
2023-05-03T09:21:58.456Z,99260.19
2023-05-03T09:25:00.487Z,99259.94
2023-05-03T09:28:02.396Z,99256.59
2023-05-03T09:31:06.140Z,99263.69
2023-05-03T09:34:23.342Z,99261.72
2023-05-03T09:37:36.342Z,99251.88
2023-05-03T09:40:38.004Z,99265.75
2023-05-03T09:43:52.590Z,99257.16
2023-05-03T09:47:06.709Z,99246.88
2023-05-03T09:50:09.059Z,99251.19
2023-05-03T09:53:10.725Z,99253.28
2023-05-03T09:56:16.652Z,99256.97
2023-05-03T09:59:18.227Z,99255.56
2023-05-03T10:02:19.783Z,99259.63
2023-05-03T10:05:22.078Z,99259.75
2023-05-03T10:08:40.992Z,99260.19
2023-05-03T10:11:52.480Z,99248.31
2023-05-03T10:14:54.022Z,99252.97
2023-05-03T10:17:55.626Z,99242.31
2023-05-03T10:21:01.319Z,99249.28
2023-05-03T10:24:16.257Z,99250.25
2023-05-03T10:27:18.161Z,99247.25
2023-05-03T10:30:26.101Z,99232.91
2023-05-03T10:33:36.764Z,99238.22
2023-05-03T10:36:48.919Z,99231.69
2023-05-03T10:39:54.569Z,99232.47
2023-05-03T10:43:00.213Z,99229.25
2023-05-03T10:46:03.128Z,99218.53
2023-05-03T10:49:20.824Z,99211.06
2023-05-03T10:52:45.985Z,99215.22
2023-05-03T10:56:12.786Z,99208.22
2023-05-03T10:59:14.394Z,99210.78
2023-05-03T11:02:17.158Z,99206.13
2023-05-03T11:05:19.117Z,99207.00
2023-05-03T11:08:22.507Z,99197.06
2023-05-03T11:11:24.135Z,99200.56
2023-05-03T11:14:25.811Z,99202.28
2023-05-03T11:17:29.255Z,99201.31
2023-05-03T11:20:32.021Z,99201.34
2023-05-03T11:23:33.634Z,99198.13
2023-05-03T11:26:38.567Z,99196.84
2023-05-03T11:29:41.278Z,99188.34
2023-05-03T11:32:43.075Z,99200.31
2023-05-03T11:35:44.850Z,99185.59
2023-05-03T11:38:46.422Z,99189.13
2023-05-03T11:42:01.327Z,99196.25
2023-05-03T11:45:04.236Z,99180.59
2023-05-03T11:48:10.466Z,99183.13
2023-05-03T11:51:13.735Z,99181.00
2023-05-03T11:57:24.667Z,99178.09
2023-05-03T12:00:26.748Z,99177.19
2023-05-03T12:03:32.387Z,99175.56
2023-05-03T12:06:35.927Z,99172.81
2023-05-03T12:09:39.885Z,99172.31
2023-05-03T12:12:57.105Z,99165.69
2023-05-03T12:16:11.584Z,99162.53
2023-05-03T12:19:33.943Z,99159.19
2023-05-03T12:22:36.533Z,99161.47
2023-05-03T12:25:39.723Z,99149.94
2023-05-03T12:28:42.361Z,99158.75
2023-05-03T12:31:44.594Z,99151.00
2023-05-03T12:34:47.105Z,99148.97
2023-05-03T12:37:49.747Z,99130.06
2023-05-03T12:40:51.516Z,99138.84
2023-05-03T12:43:53.721Z,99130.09
2023-05-03T12:46:55.564Z,99128.16
2023-05-03T12:49:59.836Z,99120.34
2023-05-03T12:53:02.847Z,99114.09
2023-05-03T12:56:06.608Z,99115.84
2023-05-03T12:59:39.372Z,99120.25
2023-05-03T13:05:36.331Z,99102.31
2023-05-03T13:11:45.002Z,99103.06
2023-05-03T13:14:50.840Z,99098.63
2023-05-03T13:17:52.612Z,99103.88
2023-05-03T13:20:57.342Z,99103.44
2023-05-03T13:23:59.008Z,99099.09
2023-05-03T13:27:00.676Z,99088.03
2023-05-03T13:30:05.081Z,99081.13
2023-05-03T13:33:08.404Z,99079.03
2023-05-03T13:36:10.050Z,99080.16
2023-05-03T13:39:11.649Z,99079.50
2023-05-03T13:42:13.284Z,99064.38
2023-05-03T13:45:15.400Z,99074.69
2023-05-03T13:48:18.557Z,99074.69
2023-05-03T13:51:20.780Z,99073.97
2023-05-03T13:54:22.331Z,99084.84
2023-05-03T13:57:23.840Z,99074.94
2023-05-03T14:00:25.691Z,99066.16
2023-05-03T14:03:27.346Z,99065.69
2023-05-03T14:06:31.133Z,99068.00
2023-05-03T14:09:39.302Z,99060.59
2023-05-03T14:12:41.379Z,99067.00
2023-05-03T14:15:45.213Z,99051.19
2023-05-03T14:18:51.099Z,99044.75
2023-05-03T14:21:59.613Z,99045.97
2023-05-03T14:25:01.205Z,99043.66
2023-05-03T14:28:03.336Z,99033.50
2023-05-03T14:31:06.697Z,99028.97
2023-05-03T14:34:08.293Z,99023.75
2023-05-03T14:37:09.902Z,99026.56
2023-05-03T14:40:11.732Z,99016.31
2023-05-03T14:43:13.776Z,99020.25
2023-05-03T14:46:16.338Z,99012.88
2023-05-03T14:49:18.202Z,99009.31
2023-05-03T14:52:19.724Z,99012.09
2023-05-03T14:55:21.306Z,99016.28
2023-05-03T14:58:22.919Z,99007.88
2023-05-03T15:01:24.476Z,99020.38
2023-05-03T15:04:26.316Z,99013.00
2023-05-03T15:07:28.198Z,99005.34
2023-05-03T15:10:29.739Z,99009.44
2023-05-03T15:13:31.368Z,99020.28
2023-05-03T15:16:34.084Z,99010.63
2023-05-03T15:19:37.698Z,99022.09
2023-05-03T15:22:39.364Z,99020.63
2023-05-03T15:25:40.890Z,99021.47
2023-05-03T15:28:42.354Z,99008.19
2023-05-03T15:31:44.163Z,99013.03
2023-05-03T15:34:46.205Z,99017.38
2023-05-03T15:37:48.241Z,99002.88
2023-05-03T15:40:49.792Z,99010.84
2023-05-03T15:43:51.291Z,99005.53
2023-05-03T15:46:52.863Z,99005.25
2023-05-03T15:49:54.320Z,99005.34
2023-05-03T15:52:57.053Z,98999.63
2023-05-03T15:55:58.775Z,99008.00
2023-05-03T15:59:00.308Z,99005.25
2023-05-03T16:02:03.322Z,99003.47
2023-05-03T16:05:05.200Z,99000.06
2023-05-03T16:08:08.154Z,99007.00
2023-05-03T16:11:09.792Z,99008.78
2023-05-03T16:14:11.432Z,99004.09
2023-05-03T16:17:12.996Z,99000.84
2023-05-03T16:20:15.196Z,98995.34
2023-05-03T16:23:19.837Z,98987.34
2023-05-03T16:26:21.486Z,98990.28
2023-05-03T16:29:22.961Z,98979.91
2023-05-03T16:32:25.284Z,98989.50
2023-05-03T16:35:27.209Z,98976.91
2023-05-03T16:38:30.796Z,98981.03
2023-05-03T16:41:32.415Z,98973.63
2023-05-03T16:44:33.974Z,98977.31
2023-05-03T16:47:35.645Z,98975.28
2023-05-03T16:50:37.668Z,98971.25
2023-05-03T16:53:39.132Z,98978.47
2023-05-03T16:56:40.656Z,98971.53
2023-05-03T16:59:42.210Z,98978.06
2023-05-03T17:02:43.925Z,98974.28
2023-05-03T17:05:45.637Z,98979.56
2023-05-03T17:08:47.317Z,98966.09
2023-05-03T17:11:48.690Z,98972.66
2023-05-03T17:14:50.700Z,98972.91
2023-05-03T17:17:52.334Z,98967.63
2023-05-03T17:20:59.136Z,98975.56
2023-05-03T17:24:00.693Z,98976.81
2023-05-03T17:27:02.949Z,98973.25
2023-05-03T17:30:06.014Z,98962.03
2023-05-03T17:33:07.825Z,98974.72
2023-05-03T17:36:09.386Z,98967.97
2023-05-03T17:39:10.925Z,98975.81
2023-05-03T17:42:12.472Z,98971.84
2023-05-03T17:45:14.029Z,98980.78
2023-05-03T17:48:15.996Z,98980.53
2023-05-03T17:51:17.685Z,98980.75
2023-05-03T17:54:19.260Z,98979.06
2023-05-03T17:57:20.890Z,98980.63
2023-05-03T18:00:22.683Z,98976.34
2023-05-03T18:03:25.821Z,98980.25
2023-05-03T18:06:28.108Z,98978.66
2023-05-03T18:09:31.119Z,98979.16
2023-05-03T18:12:32.723Z,98982.81
2023-05-03T18:15:34.357Z,98984.78
2023-05-03T18:18:38.369Z,98979.38
2023-05-03T18:21:40.112Z,98971.38
2023-05-03T18:24:41.685Z,98985.78
2023-05-03T18:27:43.238Z,98979.81
2023-05-03T18:30:45.466Z,98985.66
2023-05-03T18:33:47.035Z,98979.97
2023-05-03T18:36:48.678Z,98981.25
2023-05-03T18:39:51.639Z,98972.16
2023-05-03T18:42:53.227Z,98982.94
2023-05-03T18:45:54.837Z,98974.63
2023-05-03T18:48:56.454Z,98976.41
2023-05-03T18:51:58.107Z,98987.38
2023-05-03T18:54:59.684Z,98980.59
2023-05-03T18:58:01.543Z,98978.47
2023-05-03T19:01:04.858Z,98978.53
2023-05-03T19:04:08.283Z,98990.34
2023-05-03T19:07:10.521Z,98993.97
2023-05-03T19:10:12.366Z,98984.50
2023-05-03T19:13:15.833Z,98997.09
2023-05-03T19:16:20.497Z,98984.84
2023-05-03T19:19:22.123Z,98980.53
2023-05-03T19:22:28.020Z,98989.75
2023-05-03T19:25:29.648Z,98994.06
2023-05-03T19:28:34.330Z,98988.94
2023-05-03T19:31:36.082Z,98982.25
2023-05-03T19:34:37.768Z,98989.38
2023-05-03T19:37:39.351Z,98985.88
2023-05-03T19:40:41.362Z,98991.28
2023-05-03T19:43:42.987Z,98992.19
2023-05-03T19:46:44.773Z,98981.84
2023-05-03T19:49:46.399Z,98988.16
2023-05-03T19:52:52.535Z,98990.81
2023-05-03T19:55:58.157Z,98988.31
2023-05-03T19:58:59.731Z,98997.09
2023-05-03T20:02:01.346Z,98990.09
2023-05-03T20:05:03.979Z,99006.78
2023-05-03T20:08:05.504Z,99005.97
2023-05-03T20:11:07.202Z,99008.69
2023-05-03T20:14:08.766Z,99004.31
2023-05-03T20:17:10.327Z,99008.84
2023-05-03T20:20:12.601Z,99006.28
2023-05-03T20:23:15.008Z,99001.22
2023-05-03T20:26:18.904Z,99006.50
2023-05-03T20:29:20.627Z,99007.34
2023-05-03T20:32:22.487Z,99001.28
2023-05-03T20:35:24.019Z,99004.72
2023-05-03T20:38:25.602Z,99003.06
2023-05-03T20:41:27.509Z,98993.50
2023-05-03T20:44:29.038Z,98985.69
2023-05-03T20:47:30.724Z,98989.22
2023-05-03T20:50:32.318Z,98988.38
2023-05-03T20:53:33.955Z,98985.75
2023-05-03T20:56:35.498Z,98988.38
2023-05-03T20:59:37.058Z,98996.28
2023-05-03T21:02:38.660Z,98992.84
2023-05-03T21:05:40.274Z,98989.34
2023-05-03T21:08:42.395Z,98985.84
2023-05-03T21:11:44.204Z,98975.44
2023-05-03T21:14:45.988Z,98985.00
2023-05-03T21:17:49.803Z,98980.66
2023-05-03T21:20:53.417Z,98986.81
2023-05-03T21:23:55.117Z,98972.84
2023-05-03T21:26:57.562Z,98983.34
2023-05-03T21:29:59.078Z,98974.59
2023-05-03T21:33:00.770Z,98972.03
2023-05-03T21:36:02.461Z,98972.00
2023-05-03T21:39:04.035Z,98972.03
2023-05-03T21:42:06.455Z,98970.25
2023-05-03T21:45:08.505Z,98974.59
2023-05-03T21:48:10.290Z,98959.78
2023-05-03T21:51:21.850Z,98964.16
2023-05-03T21:54:25.806Z,98958.94
2023-05-03T21:57:27.573Z,98953.66
2023-05-03T22:00:29.211Z,98956.28
2023-05-03T22:03:30.815Z,98948.47
2023-05-03T22:06:32.539Z,98955.41
2023-05-03T22:09:34.504Z,98947.56
2023-05-03T22:12:36.193Z,98941.47
2023-05-03T22:15:37.827Z,98940.59
2023-05-03T22:18:39.468Z,98931.00
2023-05-03T22:21:41.031Z,98917.94
2023-05-03T22:24:42.615Z,98919.69
2023-05-03T22:27:44.258Z,98918.78
2023-05-03T22:30:45.942Z,98908.34
2023-05-03T22:33:48.898Z,98920.50
2023-05-03T22:36:50.560Z,98910.97
2023-05-03T22:39:52.159Z,98901.38
2023-05-03T22:42:53.722Z,98903.97
2023-05-03T22:45:55.486Z,98909.19
2023-05-03T22:48:57.370Z,98911.84
2023-05-03T22:51:58.963Z,98904.84
2023-05-03T22:55:01.377Z,98904.84
2023-05-03T22:58:02.776Z,98900.50
2023-05-03T23:01:04.822Z,98896.13
2023-05-03T23:04:06.537Z,98897.00
2023-05-03T23:07:08.103Z,98893.50
2023-05-03T23:10:12.347Z,98894.34
2023-05-03T23:13:13.930Z,98894.41
2023-05-03T23:16:15.585Z,98892.66
2023-05-03T23:19:17.241Z,98894.38
2023-05-03T23:22:18.841Z,98890.03
2023-05-03T23:25:20.711Z,98890.88
2023-05-03T23:28:22.327Z,98895.22
2023-05-03T23:31:24.316Z,98882.19
2023-05-03T23:34:26.199Z,98886.53
2023-05-03T23:37:27.827Z,98883.00
2023-05-03T23:40:29.407Z,98879.53
2023-05-03T23:43:30.995Z,98880.41
2023-05-03T23:46:33.893Z,98879.53
2023-05-03T23:49:35.630Z,98868.25
2023-05-03T23:52:37.269Z,98876.06
2023-05-03T23:55:38.826Z,98883.03
2023-05-03T23:58:40.595Z,98883.06
